Time;durP1;ratioP1;P1;durP2;ratioP2;P2;SDS_P1;SDS_P2;PMS_P1;PMS_P2;Temp;Humidity;BMP_temperature;BMP_pressure;BME280_temperature;BME280_humidity;BME280_pressure;Samples;Min_cycle;Max_cycle;Signal;HPM_P1;HPM_P2
2022/09/05 17:49:45;;;;;;;2.58;1.10;;;;;;;19.93;32.88;100110.85;1800296;79;22330;-41
2022/09/05 17:52:19;;;;;;;1.80;1.20;;;;;;;19.74;33.26;100117.34;1753135;81;21074;-44
2022/09/05 17:54:51;;;;;;;5.12;1.30;;;;;;;19.55;33.82;100121.45;1749125;80;20990;-43
2022/09/05 17:57:30;;;;;;;2.25;1.20;;;;;;;19.41;33.97;100124.36;1740465;81;21548;-39
2022/09/05 18:00:04;;;;;;;8.10;2.05;;;;;;;19.30;34.03;100121.67;1761150;81;21536;-40
2022/09/05 18:02:32;;;;;;;4.55;1.30;;;;;;;19.14;34.67;100121.55;1753430;81;21547;-40
2022/09/05 18:05:00;;;;;;;8.10;1.40;;;;;;;19.09;34.87;100130.39;1725862;81;20979;-45
2022/09/05 18:07:35;;;;;;;14.68;1.42;;;;;;;18.98;35.10;100131.22;1759308;81;21559;-42
2022/09/05 18:10:05;;;;;;;8.10;1.22;;;;;;;18.93;35.35;100130.72;1759560;81;20991;-41
2022/09/05 18:12:44;;;;;;;10.65;1.92;;;;;;;18.87;35.60;100129.86;1759835;80;20990;-44
2022/09/05 18:15:18;;;;;;;9.35;1.62;;;;;;;18.80;35.75;100133.93;1759711;81;20975;-42
2022/09/05 18:17:50;;;;;;;5.00;2.05;;;;;;;18.69;35.99;100128.08;1759443;81;20971;-52
2022/09/05 18:20:37;;;;;;;4.00;1.60;;;;;;;18.62;36.25;100128.18;1759500;81;20985;-42
2022/09/05 18:23:22;;;;;;;6.28;1.70;;;;;;;18.56;36.44;100132.65;1759334;81;21013;-46
2022/09/05 18:25:58;;;;;;;7.37;1.57;;;;;;;18.48;36.62;100132.36;1759271;81;21090;-42
2022/09/05 18:28:49;;;;;;;6.83;1.70;;;;;;;18.40;36.95;100125.80;1759818;81;20959;-45
2022/09/05 18:31:40;;;;;;;3.10;1.27;;;;;;;18.33;37.29;100127.22;1759308;81;20968;-41
2022/09/05 18:34:21;;;;;;;7.62;1.70;;;;;;;18.27;37.34;100131.67;1759317;80;21464;-49
2022/09/05 18:36:50;;;;;;;5.00;1.47;;;;;;;18.19;37.44;100128.72;1759251;81;21053;-42
2022/09/05 18:39:31;;;;;;;4.37;2.05;;;;;;;18.11;37.74;100132.44;1759580;81;21446;-43
2022/09/05 18:42:16;;;;;;;3.05;1.72;;;;;;;18.08;37.89;100132.20;1759638;81;20979;-43
2022/09/05 18:44:52;;;;;;;3.58;1.90;;;;;;;18.03;38.47;100131.67;1759659;81;21050;-43
2022/09/05 18:47:50;;;;;;;3.50;1.80;;;;;;;17.97;38.89;100129.44;1758867;81;20975;-43
2022/09/05 18:50:23;;;;;;;4.42;1.80;;;;;;;17.94;38.56;100130.53;1746410;81;21027;-43
2022/09/05 18:52:54;;;;;;;3.08;1.90;;;;;;;17.90;38.68;100130.84;1746475;81;21046;-40
2022/09/05 18:55:24;;;;;;;8.68;1.90;;;;;;;17.82;39.17;100130.89;1746398;82;20956;-41
2022/09/05 18:58:04;;;;;;;4.30;1.52;;;;;;;17.78;39.28;100129.41;1746425;82;21042;-44
2022/09/05 19:00:40;;;;;;;3.10;1.70;;;;;;;17.75;38.98;100135.44;1745172;82;20971;-44
2022/09/05 19:03:26;;;;;;;8.73;2.62;;;;;;;17.73;39.06;100132.04;1745667;82;21003;-42
2022/09/05 19:06:00;;;;;;;4.12;1.65;;;;;;;17.70;39.10;100126.94;1745996;82;20972;-44
2022/09/05 19:08:34;;;;;;;7.10;2.02;;;;;;;17.70;38.83;100126.94;1746053;82;20991;-41
2022/09/05 19:11:04;;;;;;;5.28;1.40;;;;;;;17.63;39.42;100131.38;1745786;82;21038;-41
2022/09/05 19:13:34;;;;;;;1.80;1.60;;;;;;;17.58;40.00;100127.34;1745718;81;21026;-43
2022/09/05 19:16:10;;;;;;;2.42;1.50;;;;;;;17.54;39.59;100129.38;1746057;82;20972;-43
2022/09/05 19:18:38;;;;;;;5.05;1.92;;;;;;;17.50;39.78;100121.70;1745874;82;20988;-43
2022/09/05 19:21:09;;;;;;;12.50;1.87;;;;;;;17.45;39.93;100119.39;1742616;82;20956;-42
2022/09/05 19:23:44;;;;;;;4.15;2.08;;;;;;;17.38;40.39;100116.79;1745941;82;21031;-41
2022/09/05 19:26:10;;;;;;;5.85;2.10;;;;;;;17.34;40.61;100121.47;1745803;82;21027;-43
2022/09/05 19:28:41;;;;;;;4.33;1.90;;;;;;;17.30;40.45;100117.80;1746304;82;21022;-42
2022/09/05 19:31:25;;;;;;;4.00;1.60;;;;;;;17.26;40.83;100122.02;1744074;82;21672;-43
2022/09/05 19:33:52;;;;;;;3.45;1.60;;;;;;;17.24;40.68;100115.93;1745378;82;20972;-42
2022/09/05 19:36:29;;;;;;;5.00;1.72;;;;;;;17.21;40.67;100114.84;1746089;82;20991;-42
2022/09/05 19:38:56;;;;;;;4.30;1.60;;;;;;;17.15;40.94;100112.59;1742810;82;20963;-43
2022/09/05 19:41:25;;;;;;;2.92;1.40;;;;;;;17.14;40.97;100111.39;1745995;82;20967;-49
2022/09/05 19:44:01;;;;;;;4.42;1.50;;;;;;;17.10;41.06;100113.41;1745770;81;21492;-45
2022/09/05 19:46:27;;;;;;;3.08;1.42;;;;;;;17.07;41.25;100107.81;1745869;82;21007;-41
2022/09/05 19:49:03;;;;;;;2.67;1.37;;;;;;;17.04;41.20;100113.81;1749018;81;21910;-41
2022/09/05 19:51:29;;;;;;;6.55;1.60;;;;;;;17.01;41.16;100112.23;1751815;81;20995;-39
2022/09/05 19:53:56;;;;;;;7.72;1.57;;;;;;;16.98;41.50;100110.27;1751503;81;21027;-45
2022/09/05 19:56:44;;;;;;;1.67;1.40;;;;;;;16.93;41.30;100103.93;1751704;82;20975;-44
2022/09/05 19:59:32;;;;;;;5.22;1.67;;;;;;;16.90;41.35;100104.16;1751530;81;20967;-43
2022/09/05 20:01:59;;;;;;;3.17;1.90;;;;;;;16.86;41.19;100104.84;1751467;82;20968;-40
2022/09/05 20:04:38;;;;;;;5.47;1.82;;;;;;;16.88;41.29;100106.92;1751455;81;21567;-41
2022/09/05 20:07:20;;;;;;;3.92;1.80;;;;;;;16.83;41.51;100101.55;1724042;82;20983;-43
2022/09/05 20:09:49;;;;;;;3.65;1.57;;;;;;;16.83;41.42;100102.39;1751582;82;20983;-40
2022/09/05 20:12:31;;;;;;;4.92;1.75;;;;;;;16.79;41.52;100099.55;1752572;81;21434;-43
2022/09/05 20:15:21;;;;;;;4.65;1.67;;;;;;;16.77;41.55;100101.92;1753091;81;20960;-42
2022/09/05 20:17:50;;;;;;;5.85;1.80;;;;;;;16.72;41.81;100098.72;1753056;82;21042;-41
2022/09/05 20:20:24;;;;;;;2.87;1.80;;;;;;;16.67;42.24;100099.05;1753144;81;21437;-46
2022/09/05 20:23:06;;;;;;;11.40;2.27;;;;;;;16.66;41.89;100100.86;1752598;81;21003;-44
2022/09/05 20:25:42;;;;;;;8.73;2.02;;;;;;;16.61;42.24;100094.16;1752900;80;20987;-43
2022/09/05 20:28:16;;;;;;;10.00;2.10;;;;;;;16.53;42.77;100096.47;1753102;81;20995;-48
2022/09/05 20:30:53;;;;;;;4.72;1.92;;;;;;;16.45;42.57;100095.18;1752987;81;21560;-43
2022/09/05 20:33:33;;;;;;;3.20;1.95;;;;;;;16.44;43.41;100086.83;1753075;81;21020;-47
2022/09/05 20:36:03;;;;;;;2.12;1.60;;;;;;;16.42;42.89;100091.87;1752504;81;20952;-42
2022/09/05 20:38:33;;;;;;;6.87;2.00;;;;;;;16.39;43.13;100082.33;1753272;81;21658;-42
2022/09/05 20:41:04;;;;;;;9.00;1.80;;;;;;;16.37;43.25;100091.33;1752842;81;20987;-44
2022/09/05 20:43:57;;;;;;;3.45;1.80;;;;;;;16.34;42.94;100084.44;1752889;81;21024;-42
2022/09/05 20:46:43;;;;;;;2.08;1.67;;;;;;;16.33;43.24;100086.70;1752801;81;21504;-44
2022/09/05 20:49:21;;;;;;;3.47;1.60;;;;;;;16.31;42.98;100077.51;1750257;81;21016;-42
2022/09/05 20:52:00;;;;;;;6.70;1.60;;;;;;;16.30;43.12;100078.97;1747781;81;20980;-44
2022/09/05 20:54:27;;;;;;;3.87;1.95;;;;;;;16.30;42.90;100082.95;1747881;81;21004;-47
2022/09/05 20:56:55;;;;;;;2.52;1.52;;;;;;;16.26;43.32;100078.77;1747979;81;20976;-45
2022/09/05 20:59:27;;;;;;;;;;;;;;;16.23;43.33;100081.65;1750657;81;20985;-41
2022/09/05 21:02:22;;;;;;;2.17;1.47;;;;;;;16.18;45.33;100078.45;1748010;81;20093;-39
2022/09/05 21:05:05;;;;;;;6.05;1.55;;;;;;;16.18;43.26;100079.77;1748012;81;20991;-41
2022/09/05 21:07:34;;;;;;;3.92;1.32;;;;;;;16.17;43.18;100076.73;1747452;81;21514;-38
2022/09/05 21:10:08;;;;;;;2.65;1.62;;;;;;;16.14;43.58;100079.61;1747993;81;21851;-38
2022/09/05 21:12:47;;;;;;;2.98;1.80;;;;;;;16.10;43.51;100087.76;1746707;81;20984;-41
2022/09/05 21:15:31;;;;;;;5.45;2.10;;;;;;;16.05;43.85;100085.03;1747997;81;21492;-39
2022/09/05 21:18:04;;;;;;;2.40;1.87;;;;;;;16.04;43.76;100084.16;1747861;81;20952;-43
2022/09/05 21:20:30;;;;;;;5.20;2.17;;;;;;;16.00;44.09;100090.63;1748074;81;20980;-41
2022/09/05 21:22:56;;;;;;;5.30;2.37;;;;;;;15.96;44.49;100090.94;1747920;82;20991;-41
2022/09/05 21:25:29;;;;;;;4.15;2.25;;;;;;;15.90;44.14;100092.20;1748209;81;20980;-41
2022/09/05 21:28:03;;;;;;;4.90;2.40;;;;;;;15.83;44.76;100082.45;1747937;81;20968;-41
2022/09/05 21:30:39;;;;;;;4.95;2.77;;;;;;;15.78;44.99;100084.53;1748016;81;20968;-37
2022/09/05 21:33:10;;;;;;;5.58;2.65;;;;;;;15.74;45.50;100086.53;1748006;81;20992;-41
2022/09/05 21:35:40;;;;;;;7.25;2.50;;;;;;;15.71;45.43;100081.39;1747984;81;20979;-39
2022/09/05 21:38:14;;;;;;;4.62;3.10;;;;;;;15.69;45.76;100085.09;1748069;81;21534;-41
2022/09/05 21:40:41;;;;;;;11.75;2.95;;;;;;;15.64;45.85;100084.05;1747204;81;21528;-41
2022/09/05 21:43:10;;;;;;;4.65;2.75;;;;;;;15.63;45.72;100081.05;1748165;81;20988;-39
2022/09/05 21:45:38;;;;;;;7.17;2.75;;;;;;;15.60;45.98;100077.25;1747906;81;21018;-38
2022/09/05 21:48:07;;;;;;;10.95;5.30;;;;;;;15.57;45.95;100068.64;1747943;81;21469;-43
2022/09/05 21:50:52;;;;;;;22.00;8.78;;;;;;;15.55;45.91;100078.01;1747094;81;20988;-43
2022/09/05 21:53:43;;;;;;;16.60;8.35;;;;;;;15.52;46.22;100075.58;1747983;82;21137;-40
2022/09/05 21:56:16;;;;;;;11.30;5.40;;;;;;;15.50;46.08;100070.85;1747932;82;21047;-41
2022/09/05 21:58:45;;;;;;;7.35;4.22;;;;;;;15.47;46.34;100073.69;1746103;82;21101;-43
2022/09/05 22:01:10;;;;;;;10.03;3.20;;;;;;;15.43;46.55;100068.20;1747881;81;21015;-44
2022/09/05 22:03:39;;;;;;;5.70;3.15;;;;;;;15.40;46.78;100071.89;1748086;81;20992;-41
2022/09/05 22:06:10;;;;;;;10.75;3.33;;;;;;;15.39;46.72;100073.30;1748097;81;21039;-44
2022/09/05 22:08:38;;;;;;;9.55;2.75;;;;;;;15.35;47.11;100070.87;1747822;81;20980;-42
2022/09/05 22:11:07;;;;;;;4.60;2.37;;;;;;;15.29;47.54;100061.95;1747947;82;20964;-42
2022/09/05 22:13:34;;;;;;;3.67;2.70;;;;;;;15.26;47.79;100072.77;1747974;81;21031;-42
2022/09/05 22:16:03;;;;;;;;;;;;;;;15.23;47.66;100075.59;1750604;81;21559;-41
2022/09/05 22:18:31;;;;;;;5.50;2.40;;;;;;;15.19;49.86;100071.89;1747852;81;20114;-41
2022/09/05 22:20:58;;;;;;;6.35;2.30;;;;;;;15.21;47.59;100071.32;1747963;81;21000;-44
2022/09/05 22:23:24;;;;;;;5.15;2.50;;;;;;;15.19;48.09;100069.25;1748175;81;21029;-43
2022/09/05 22:25:50;;;;;;;5.45;3.10;;;;;;;15.14;48.16;100062.45;1748083;81;20984;-48
2022/09/05 22:28:21;;;;;;;9.80;2.27;;;;;;;15.12;48.29;100062.17;1747916;81;20984;-43
2022/09/05 22:30:47;;;;;;;7.97;2.80;;;;;;;15.10;48.21;100068.05;1747899;81;20976;-40
2022/09/05 22:33:13;;;;;;;7.55;2.08;;;;;;;15.12;48.09;100065.66;1748056;81;20988;-40
2022/09/05 22:35:41;;;;;;;6.12;2.37;;;;;;;15.11;48.28;100065.75;1748099;82;21504;-40
2022/09/05 22:38:11;;;;;;;4.25;2.40;;;;;;;15.12;48.25;100066.15;1748169;81;20968;-43
2022/09/05 22:40:39;;;;;;;4.90;2.52;;;;;;;15.09;48.56;100062.35;1748426;81;20994;-45
2022/09/05 22:43:08;;;;;;;6.67;2.40;;;;;;;15.06;48.46;100062.53;1748163;81;20987;-43
2022/09/05 22:45:36;;;;;;;7.30;2.50;;;;;;;15.03;48.87;100062.74;1748089;81;20980;-44
2022/09/05 22:48:11;;;;;;;5.17;2.50;;;;;;;15.01;48.98;100060.63;1748062;81;21541;-40
2022/09/05 22:50:38;;;;;;;4.80;2.12;;;;;;;15.00;48.79;100069.06;1747986;80;21027;-41
2022/09/05 22:53:06;;;;;;;3.87;2.42;;;;;;;14.99;49.02;100063.41;1748238;81;21004;-43
2022/09/05 22:55:38;;;;;;;6.17;2.40;;;;;;;14.98;49.09;100062.53;1748357;81;20983;-40
2022/09/05 22:58:06;;;;;;;3.17;2.10;;;;;;;14.94;49.58;100054.41;1748127;81;21477;-40
2022/09/05 23:00:33;;;;;;;5.65;2.62;;;;;;;14.90;49.37;100056.87;1748140;81;20961;-46
2022/09/05 23:03:03;;;;;;;4.53;2.13;;;;;;;14.86;49.48;100060.66;1748373;81;20987;-41
2022/09/05 23:05:30;;;;;;;4.33;2.50;;;;;;;14.86;49.34;100053.16;1748145;81;21342;-45
2022/09/05 23:08:03;;;;;;;6.67;2.65;;;;;;;14.83;49.77;100055.53;1748233;81;20988;-43
2022/09/05 23:10:29;;;;;;;2.83;1.92;;;;;;;14.83;49.65;100057.34;1748113;81;20985;-41
2022/09/05 23:12:56;;;;;;;4.37;2.52;;;;;;;14.81;49.55;100057.43;1748489;81;21483;-42
2022/09/05 23:15:23;;;;;;;3.90;2.20;;;;;;;14.77;49.94;100051.92;1748175;81;21027;-41
2022/09/05 23:17:55;;;;;;;4.90;2.08;;;;;;;14.77;49.85;100055.44;1748192;81;21465;-47
2022/09/05 23:20:22;;;;;;;5.33;2.02;;;;;;;14.76;49.63;100051.55;1747963;81;21520;-44
2022/09/05 23:22:47;;;;;;;5.58;2.10;;;;;;;14.75;49.80;100052.48;1748280;81;21034;-45
2022/09/05 23:25:13;;;;;;;2.85;2.27;;;;;;;14.73;49.85;100047.28;1748081;82;20968;-46
2022/09/05 23:27:39;;;;;;;4.87;2.02;;;;;;;14.71;50.19;100038.58;1748067;82;21426;-43
2022/09/05 23:30:07;;;;;;;5.72;2.60;;;;;;;14.71;50.14;100035.09;1748057;81;21016;-39
2022/09/05 23:32:33;;;;;;;3.90;1.98;;;;;;;14.68;50.22;100036.14;1748054;81;21034;-42
2022/09/05 23:34:59;;;;;;;6.92;1.87;;;;;;;14.66;50.38;100037.16;1748058;82;21069;-43
2022/09/05 23:37:25;;;;;;;4.70;2.25;;;;;;;14.65;50.42;100039.45;1748084;82;20980;-43
2022/09/05 23:39:51;;;;;;;8.08;2.30;;;;;;;14.61;50.58;100041.42;1748055;81;20991;-45
2022/09/05 23:42:16;;;;;;;10.43;2.02;;;;;;;14.59;50.76;100040.19;1748086;81;21023;-43
2022/09/05 23:44:42;;;;;;;5.40;2.30;;;;;;;14.55;50.74;100038.64;1748030;81;20992;-42
2022/09/05 23:47:08;;;;;;;4.08;1.90;;;;;;;14.54;50.69;100038.73;1748042;81;21035;-43
2022/09/05 23:49:34;;;;;;;4.15;2.47;;;;;;;14.51;51.17;100040.23;1753494;81;21490;-46
2022/09/05 23:51:59;;;;;;;6.80;2.27;;;;;;;14.47;51.17;100049.30;1761499;81;20979;-48
2022/09/05 23:54:25;;;;;;;3.50;2.00;;;;;;;14.45;51.36;100049.39;1761536;81;21481;-43
2022/09/05 23:56:51;;;;;;;5.33;2.22;;;;;;;14.42;51.43;100049.56;1761413;81;21464;-45
2022/09/05 23:59:17;;;;;;;5.15;1.95;;;;;;;14.41;51.24;100051.84;1761357;81;21465;-43
